createdAt,value
2018-12-21T03:16:01.050Z,9.29
2018-12-21T03:17:00.961Z,9.33
2018-12-21T03:18:00.991Z,9.31
2018-12-21T03:19:00.994Z,9.26
2018-12-21T03:20:01.060Z,9.33
2018-12-21T03:21:00.979Z,9.34
2018-12-21T03:22:01.017Z,9.39
2018-12-21T03:23:01.020Z,9.34
2018-12-21T03:24:01.010Z,9.33
2018-12-21T03:25:01.019Z,9.44
2018-12-21T03:26:01.045Z,9.34
2018-12-21T03:27:01.001Z,9.29
2018-12-21T03:28:01.014Z,9.29
2018-12-21T03:29:01.012Z,9.30
2018-12-21T03:30:00.997Z,9.42
2018-12-21T03:31:01.081Z,9.49
2018-12-21T03:32:01.064Z,9.49
2018-12-21T03:33:01.039Z,9.42
2018-12-21T03:34:01.067Z,9.44
2018-12-21T03:35:01.076Z,9.39
2018-12-21T03:36:01.025Z,9.48
2018-12-21T03:37:01.105Z,9.45
2018-12-21T03:38:01.062Z,9.47
2018-12-21T03:39:01.061Z,9.45
2018-12-21T03:40:01.077Z,9.45
2018-12-21T03:41:01.049Z,9.51
2018-12-21T03:42:01.109Z,9.54
2018-12-21T03:43:01.087Z,9.42
2018-12-21T03:44:01.078Z,9.49
2018-12-21T03:45:01.129Z,9.55
2018-12-21T03:46:01.119Z,9.51
2018-12-21T03:47:01.144Z,9.48
2018-12-21T03:48:01.112Z,9.48
2018-12-21T03:49:01.101Z,9.48
2018-12-21T03:50:01.161Z,9.49
2018-12-21T03:51:01.145Z,9.52
2018-12-21T03:52:01.143Z,9.47
2018-12-21T03:53:01.159Z,9.52
2018-12-21T03:54:01.145Z,9.52
2018-12-21T03:55:01.134Z,9.51
2018-12-21T03:56:01.146Z,9.45
2018-12-21T03:57:01.150Z,9.49
2018-12-21T03:58:01.224Z,9.47
2018-12-21T03:59:01.163Z,9.44
2018-12-21T04:00:01.180Z,9.47
2018-12-21T04:01:01.170Z,9.55
2018-12-21T04:02:01.182Z,9.54
2018-12-21T04:03:01.190Z,9.47
2018-12-21T04:04:01.183Z,9.52
2018-12-21T04:05:01.191Z,9.54
2018-12-21T04:06:01.188Z,9.62
2018-12-21T04:07:01.217Z,9.52
2018-12-21T04:08:01.229Z,9.58
2018-12-21T04:09:01.237Z,9.59
2018-12-21T04:10:01.218Z,9.52
2018-12-21T04:11:01.203Z,9.56
2018-12-21T04:12:01.248Z,9.59
2018-12-21T04:13:01.201Z,9.59
2018-12-21T04:14:01.263Z,9.62
2018-12-21T04:15:01.217Z,9.59
2018-12-21T04:16:01.258Z,9.58
2018-12-21T04:17:01.257Z,9.62
2018-12-21T04:18:01.239Z,9.64
2018-12-21T04:19:01.283Z,9.72
2018-12-21T04:20:01.322Z,9.72
2018-12-21T04:21:01.278Z,9.69
2018-12-21T04:22:01.277Z,9.76
2018-12-21T04:23:01.292Z,9.73
2018-12-21T04:24:01.330Z,9.77
2018-12-21T04:25:01.337Z,9.76
2018-12-21T04:26:01.363Z,9.81
2018-12-21T04:27:01.340Z,9.73
2018-12-21T04:28:01.342Z,9.84
2018-12-21T04:29:01.301Z,9.84
2018-12-21T04:30:01.361Z,9.87
2018-12-21T04:31:01.333Z,9.88
2018-12-21T04:32:01.307Z,9.82
2018-12-21T04:33:01.327Z,9.92
2018-12-21T04:34:01.326Z,9.87
2018-12-21T04:35:01.353Z,9.87
2018-12-21T04:36:01.408Z,9.99
2018-12-21T04:37:01.373Z,10.00
2018-12-21T04:38:01.350Z,9.95
2018-12-21T04:39:01.369Z,10.02
2018-12-21T04:40:01.350Z,9.92
2018-12-21T04:41:01.349Z,10.02
2018-12-21T04:42:01.419Z,9.97
2018-12-21T04:43:01.362Z,9.99
2018-12-21T04:44:01.385Z,10.03
2018-12-21T04:45:01.381Z,10.06
2018-12-21T04:46:01.430Z,10.09
2018-12-21T04:47:01.405Z,10.09
2018-12-21T04:48:01.447Z,10.03
2018-12-21T04:49:01.410Z,10.09
2018-12-21T04:50:01.450Z,10.12
2018-12-21T04:51:01.430Z,10.09
2018-12-21T04:52:01.462Z,10.10
2018-12-21T04:53:01.461Z,10.13
2018-12-21T04:54:01.437Z,10.12
2018-12-21T04:55:01.454Z,10.06
2018-12-21T04:56:01.451Z,10.21
2018-12-21T04:57:01.450Z,10.18
2018-12-21T04:58:01.475Z,10.21
2018-12-21T04:59:01.539Z,10.23
2018-12-21T05:00:01.476Z,10.23
2018-12-21T05:01:01.482Z,10.21
2018-12-21T05:02:01.518Z,10.24
2018-12-21T05:03:01.519Z,10.23
2018-12-21T05:04:01.522Z,10.24
2018-12-21T05:05:01.603Z,10.23
2018-12-21T05:06:01.526Z,10.20
2018-12-21T05:07:01.550Z,10.20
2018-12-21T05:08:01.488Z,10.23
2018-12-21T05:09:01.551Z,10.15
2018-12-21T05:10:01.518Z,10.25
2018-12-21T05:11:01.526Z,10.24
2018-12-21T05:12:01.549Z,10.13
2018-12-21T05:13:01.523Z,10.20
2018-12-21T05:14:01.546Z,10.13
2018-12-21T05:15:01.546Z,10.15
2018-12-21T05:16:01.554Z,10.10
2018-12-21T05:17:01.634Z,10.23
2018-12-21T05:18:01.549Z,10.21
2018-12-21T05:19:01.589Z,10.18
2018-12-21T05:20:01.603Z,10.21
2018-12-21T05:21:01.582Z,10.23
2018-12-21T05:22:01.583Z,10.21
2018-12-21T05:23:01.596Z,10.15
2018-12-21T05:24:01.595Z,10.18
2018-12-21T05:25:01.599Z,10.24
2018-12-21T05:26:01.639Z,10.28
2018-12-21T05:27:01.607Z,10.28
2018-12-21T05:28:01.605Z,10.25
2018-12-21T05:29:01.621Z,10.27
2018-12-21T05:30:01.656Z,10.31
2018-12-21T05:31:01.665Z,10.25
2018-12-21T05:32:01.728Z,10.25
2018-12-21T05:33:01.656Z,10.23
2018-12-21T05:34:01.648Z,10.24
2018-12-21T05:35:01.687Z,10.23
2018-12-21T05:36:01.656Z,10.28
2018-12-21T05:37:01.647Z,10.24
2018-12-21T05:38:01.685Z,10.23
2018-12-21T05:39:01.715Z,10.23
2018-12-21T05:40:01.677Z,10.20
2018-12-21T05:41:01.691Z,10.21
2018-12-21T05:42:01.723Z,10.24
2018-12-21T05:43:01.687Z,10.25
2018-12-21T05:44:01.694Z,10.31
2018-12-21T05:45:01.695Z,10.28
2018-12-21T05:46:01.677Z,10.23
2018-12-21T05:47:01.717Z,10.23
2018-12-21T05:48:01.752Z,10.33
2018-12-21T05:49:01.723Z,10.27
2018-12-21T05:50:01.727Z,10.25
2018-12-21T05:51:01.720Z,10.27
2018-12-21T05:52:01.741Z,10.24
2018-12-21T05:53:01.766Z,10.24
2018-12-21T05:54:01.787Z,10.24
2018-12-21T05:55:01.763Z,10.33
2018-12-21T05:56:01.753Z,10.30
2018-12-21T05:57:01.736Z,10.27
2018-12-21T05:58:01.800Z,10.30
2018-12-21T05:59:01.762Z,10.20
2018-12-21T06:00:01.774Z,10.25
2018-12-21T06:01:01.762Z,10.23
2018-12-21T06:02:01.780Z,10.27
2018-12-21T06:03:01.792Z,10.23
2018-12-21T06:04:01.804Z,10.24
2018-12-21T06:05:01.800Z,10.25
2018-12-21T06:06:01.797Z,10.28
2018-12-21T06:07:01.812Z,10.30
2018-12-21T06:08:02.868Z,10.24
2018-12-21T06:09:01.910Z,10.28
2018-12-21T06:10:01.873Z,10.25
2018-12-21T06:11:02.205Z,10.34
2018-12-21T06:12:01.840Z,10.24
2018-12-21T06:13:01.849Z,10.25
2018-12-21T06:14:01.873Z,10.27
2018-12-21T06:15:01.851Z,10.24
2018-12-21T06:16:01.855Z,10.24
2018-12-21T06:17:01.859Z,10.28
2018-12-21T06:18:01.849Z,10.38
2018-12-21T06:19:02.058Z,10.33
2018-12-21T06:20:01.924Z,10.24
2018-12-21T06:21:01.889Z,10.34
2018-12-21T06:22:01.890Z,10.33
2018-12-21T06:23:09.267Z,10.30
2018-12-21T06:24:02.124Z,10.33
2018-12-21T06:25:02.047Z,10.34
2018-12-21T06:26:01.930Z,10.36
2018-12-21T06:27:01.943Z,10.38
2018-12-21T06:28:01.946Z,10.36
2018-12-21T06:29:01.945Z,10.38
2018-12-21T06:30:01.937Z,10.34
2018-12-21T06:31:01.934Z,10.38
2018-12-21T06:32:01.938Z,10.31
2018-12-21T06:33:02.061Z,10.33
2018-12-21T06:34:01.996Z,10.34
2018-12-21T06:35:01.965Z,10.43
2018-12-21T06:36:01.992Z,10.41
2018-12-21T06:37:02.080Z,10.31
2018-12-21T06:38:02.138Z,10.39
2018-12-21T06:39:01.960Z,10.45
2018-12-21T06:40:01.985Z,10.39
2018-12-21T06:41:01.988Z,10.36
2018-12-21T06:42:02.085Z,10.39
2018-12-21T06:43:02.014Z,10.30
2018-12-21T06:44:02.019Z,10.36
2018-12-21T06:45:02.015Z,10.34
2018-12-21T06:46:02.030Z,10.31
2018-12-21T06:47:02.176Z,10.33
2018-12-21T06:48:02.055Z,10.33
2018-12-21T06:49:02.048Z,10.33
2018-12-21T06:50:02.026Z,10.33
2018-12-21T06:51:02.033Z,10.39
2018-12-21T06:52:02.037Z,10.38
2018-12-21T06:53:02.114Z,10.36
2018-12-21T06:54:02.069Z,10.36
2018-12-21T06:55:02.042Z,10.39
2018-12-21T06:56:02.098Z,10.41
2018-12-21T06:57:02.068Z,10.41
2018-12-21T06:58:02.077Z,10.51
2018-12-21T06:59:02.079Z,10.45
2018-12-21T07:00:02.081Z,10.45
2018-12-21T07:01:02.069Z,10.43
2018-12-21T07:02:02.142Z,10.45
2018-12-21T07:03:02.101Z,10.48
2018-12-21T07:04:02.084Z,10.53
2018-12-21T07:05:02.099Z,10.55
2018-12-21T07:06:02.141Z,10.53
2018-12-21T07:07:02.133Z,10.53
2018-12-21T07:08:02.155Z,10.49
2018-12-21T07:09:02.238Z,10.53
2018-12-21T07:10:02.483Z,10.61
2018-12-21T07:11:02.152Z,10.49
2018-12-21T07:12:02.171Z,10.62
2018-12-21T07:13:02.194Z,10.57
2018-12-21T07:14:02.188Z,10.59
2018-12-21T07:15:02.176Z,10.61
2018-12-21T07:16:02.171Z,10.58
2018-12-21T07:17:02.166Z,10.59
2018-12-21T07:18:02.161Z,10.61
2018-12-21T07:19:02.183Z,10.48
2018-12-21T07:20:02.211Z,10.58
2018-12-21T07:21:02.194Z,10.62
2018-12-21T07:22:02.183Z,10.59
2018-12-21T07:23:02.204Z,10.61
2018-12-21T07:24:02.271Z,10.64
2018-12-21T07:25:02.192Z,10.62
2018-12-21T07:26:02.222Z,10.59
2018-12-21T07:27:02.260Z,10.61
2018-12-21T07:28:02.355Z,10.62
2018-12-21T07:29:02.317Z,10.59
2018-12-21T07:30:02.475Z,10.65
2018-12-21T07:31:02.281Z,10.59
2018-12-21T07:32:02.282Z,10.53
2018-12-21T07:33:02.264Z,10.59
2018-12-21T07:34:02.259Z,10.65
2018-12-21T07:35:02.327Z,10.62
2018-12-21T07:36:08.341Z,10.61
2018-12-21T07:37:02.272Z,10.61
2018-12-21T07:38:02.273Z,10.67
2018-12-21T07:39:02.282Z,10.61
2018-12-21T07:40:02.294Z,10.62
2018-12-21T07:41:02.356Z,10.59
2018-12-21T07:42:03.591Z,10.61
2018-12-21T07:43:02.625Z,10.61
2018-12-21T07:44:02.323Z,10.59
2018-12-21T07:45:02.413Z,10.64
2018-12-21T07:46:02.364Z,10.59
2018-12-21T07:47:02.371Z,10.67
2018-12-21T07:48:02.356Z,10.57
2018-12-21T07:49:02.344Z,10.57
2018-12-21T07:50:02.366Z,10.55
2018-12-21T07:51:02.344Z,10.57
2018-12-21T07:52:02.386Z,10.61
2018-12-21T07:53:02.359Z,10.62
2018-12-21T07:54:02.353Z,10.59
2018-12-21T07:55:02.367Z,10.55
2018-12-21T07:56:02.405Z,10.57
2018-12-21T07:57:02.383Z,10.53
2018-12-21T07:58:02.407Z,10.51
2018-12-21T07:59:02.412Z,10.51
2018-12-21T08:00:02.397Z,10.39
2018-12-21T08:01:02.459Z,10.43
2018-12-21T08:02:02.397Z,10.43
2018-12-21T08:03:02.478Z,10.48
2018-12-21T08:04:02.403Z,10.43
2018-12-21T08:05:02.436Z,10.53
2018-12-21T08:06:02.457Z,10.43
2018-12-21T08:07:02.455Z,10.42
2018-12-21T08:08:02.443Z,10.45
2018-12-21T08:09:02.465Z,10.46
2018-12-21T08:10:02.598Z,10.39
2018-12-21T08:11:02.719Z,10.41
2018-12-21T08:12:02.472Z,10.48
2018-12-21T08:13:02.505Z,10.48
2018-12-21T08:14:02.488Z,10.48
2018-12-21T08:15:02.463Z,10.43
2018-12-21T08:16:02.488Z,10.42
2018-12-21T08:17:02.505Z,10.59
2018-12-21T08:18:02.514Z,10.49
2018-12-21T08:19:02.584Z,10.45
2018-12-21T08:20:02.513Z,10.51
2018-12-21T08:21:02.537Z,10.59
2018-12-21T08:22:02.497Z,10.61
2018-12-21T08:23:02.509Z,10.55
2018-12-21T08:24:02.529Z,10.58
2018-12-21T08:25:02.559Z,10.58
2018-12-21T08:26:02.550Z,10.59
2018-12-21T08:27:02.532Z,10.57
2018-12-21T08:28:02.561Z,10.59
2018-12-21T08:29:02.546Z,10.58
2018-12-21T08:30:02.578Z,10.62
2018-12-21T08:31:02.599Z,10.62
2018-12-21T08:32:02.561Z,10.62
2018-12-21T08:33:02.579Z,10.64
2018-12-21T08:34:02.562Z,10.64
2018-12-21T08:35:02.585Z,10.61
2018-12-21T08:36:02.630Z,10.64
2018-12-21T08:37:02.623Z,10.69
2018-12-21T08:38:02.612Z,10.75
2018-12-21T08:39:02.646Z,10.72
2018-12-21T08:40:02.622Z,10.68
2018-12-21T08:41:02.620Z,10.69
2018-12-21T08:42:02.658Z,10.69
2018-12-21T08:43:02.631Z,10.69
2018-12-21T08:44:02.626Z,10.69
2018-12-21T08:45:02.620Z,10.68
2018-12-21T08:46:02.646Z,10.68
2018-12-21T08:47:02.653Z,10.68
2018-12-21T08:48:02.676Z,10.69
2018-12-21T08:49:02.724Z,10.69
2018-12-21T08:50:02.681Z,10.69
2018-12-21T08:51:02.662Z,10.68
2018-12-21T08:52:02.721Z,10.72
2018-12-21T08:53:02.675Z,10.69
2018-12-21T08:54:02.829Z,10.67
2018-12-21T08:55:02.699Z,10.71
2018-12-21T08:56:02.714Z,10.68
2018-12-21T08:57:02.739Z,10.68
2018-12-21T08:58:02.713Z,10.75
2018-12-21T08:59:02.696Z,10.69
2018-12-21T09:00:02.745Z,10.67
2018-12-21T09:01:02.748Z,10.77
2018-12-21T09:02:02.739Z,10.77
2018-12-21T09:03:02.779Z,10.83
2018-12-21T09:04:02.765Z,10.75
2018-12-21T09:05:02.747Z,10.77
2018-12-21T09:06:02.779Z,10.77
2018-12-21T09:07:02.776Z,10.83
2018-12-21T09:08:02.743Z,10.82
2018-12-21T09:09:02.825Z,10.84
2018-12-21T09:10:02.807Z,10.82
2018-12-21T09:11:02.761Z,10.83
2018-12-21T09:12:02.785Z,10.86
2018-12-21T09:13:02.841Z,10.83
2018-12-21T09:14:02.850Z,10.82
2018-12-21T09:15:02.841Z,10.86
2018-12-21T09:16:02.889Z,10.87
2018-12-21T09:17:02.839Z,10.84
2018-12-21T09:18:02.846Z,10.92
2018-12-21T09:19:02.848Z,10.95
2018-12-21T09:20:02.825Z,10.95
2018-12-21T09:21:02.997Z,10.90
2018-12-21T09:22:02.855Z,10.89
2018-12-21T09:23:02.863Z,10.97
2018-12-21T09:24:02.888Z,11.04
2018-12-21T09:25:02.918Z,10.98
2018-12-21T09:26:02.884Z,11.01
2018-12-21T09:27:02.924Z,11.01
2018-12-21T09:28:02.888Z,10.97
2018-12-21T09:29:02.973Z,11.01
2018-12-21T09:30:03.016Z,11.04
2018-12-21T09:31:02.976Z,11.07
2018-12-21T09:32:05.150Z,11.13
2018-12-21T09:33:03.057Z,11.07
2018-12-21T09:34:02.994Z,11.01
2018-12-21T09:35:02.928Z,11.18
2018-12-21T09:36:02.995Z,11.13
2018-12-21T09:37:03.014Z,11.16
2018-12-21T09:38:03.221Z,11.16
2018-12-21T09:39:03.341Z,11.16
2018-12-21T09:40:02.949Z,11.16
2018-12-21T09:41:02.948Z,11.22
2018-12-21T09:42:02.992Z,11.19
2018-12-21T09:43:02.992Z,11.22
2018-12-21T09:44:02.997Z,11.26
2018-12-21T09:45:02.976Z,11.27
2018-12-21T09:46:03.014Z,11.30
2018-12-21T09:47:03.078Z,11.31
2018-12-21T09:48:03.072Z,11.27
2018-12-21T09:49:03.047Z,11.30
2018-12-21T09:50:03.049Z,11.30
2018-12-21T09:51:03.041Z,11.23
2018-12-21T09:52:03.003Z,11.40
2018-12-21T09:53:03.056Z,11.31
2018-12-21T09:54:09.929Z,11.41
2018-12-21T09:55:03.060Z,11.44
2018-12-21T09:56:03.102Z,11.37
2018-12-21T09:57:03.036Z,11.41
2018-12-21T09:58:03.158Z,11.35
2018-12-21T09:59:03.104Z,11.37
2018-12-21T10:00:03.118Z,11.40
2018-12-21T10:01:03.186Z,11.44
2018-12-21T10:02:03.118Z,11.48
2018-12-21T10:03:03.151Z,11.38
2018-12-21T10:04:03.092Z,11.43
2018-12-21T10:05:03.207Z,11.43
2018-12-21T10:06:03.110Z,11.49
2018-12-21T10:07:03.310Z,11.56
2018-12-21T10:08:03.532Z,11.60
2018-12-21T10:09:03.562Z,11.58
2018-12-21T10:10:03.339Z,11.70
2018-12-21T10:11:03.261Z,11.70
2018-12-21T10:12:03.246Z,11.68
2018-12-21T10:13:03.240Z,11.65
2018-12-21T10:14:03.423Z,11.65
2018-12-21T10:15:03.151Z,11.71
2018-12-21T10:16:03.532Z,11.67
2018-12-21T10:17:03.254Z,11.73
2018-12-21T10:18:03.993Z,11.73
2018-12-21T10:19:04.449Z,11.74
2018-12-21T10:20:03.292Z,11.80
2018-12-21T10:21:03.572Z,11.77
2018-12-21T10:22:03.289Z,11.80
2018-12-21T10:23:03.198Z,11.77
2018-12-21T10:24:03.231Z,11.77
2018-12-21T10:25:03.415Z,11.74
2018-12-21T10:26:03.282Z,11.80
2018-12-21T10:27:03.272Z,11.76
2018-12-21T10:28:03.330Z,11.77
2018-12-21T10:29:03.587Z,11.91
2018-12-21T10:30:05.117Z,11.91
2018-12-21T10:31:03.967Z,11.85
2018-12-21T10:32:03.403Z,11.95
2018-12-21T10:33:03.847Z,11.96
2018-12-21T10:34:03.292Z,11.91
2018-12-21T10:35:03.277Z,11.95
2018-12-21T10:36:03.284Z,11.99
2018-12-21T10:37:03.313Z,11.99
2018-12-21T10:38:03.354Z,12.03
2018-12-21T10:39:03.349Z,11.99
2018-12-21T10:40:03.299Z,11.95
2018-12-21T10:41:03.342Z,12.10
2018-12-21T10:42:03.395Z,12.02
2018-12-21T10:43:03.353Z,12.07
2018-12-21T10:44:03.352Z,12.07
2018-12-21T10:45:03.519Z,12.02
2018-12-21T10:46:03.375Z,12.07
2018-12-21T10:47:04.159Z,12.11
2018-12-21T10:48:03.719Z,12.11
2018-12-21T10:49:03.384Z,12.08
2018-12-21T10:50:03.349Z,12.03
2018-12-21T10:51:03.381Z,12.17
2018-12-21T10:52:03.938Z,12.17
2018-12-21T10:53:03.368Z,12.18
2018-12-21T10:54:03.388Z,12.18
2018-12-21T10:55:03.367Z,12.18
2018-12-21T10:56:05.335Z,12.20
2018-12-21T10:57:03.391Z,12.21
2018-12-21T10:58:03.409Z,12.17
2018-12-21T10:59:03.465Z,12.23
2018-12-21T11:00:03.422Z,12.18
2018-12-21T11:01:03.407Z,12.25
2018-12-21T11:02:03.424Z,12.21
2018-12-21T11:03:03.435Z,12.25
2018-12-21T11:04:03.449Z,12.21
2018-12-21T11:05:04.975Z,12.17
2018-12-21T11:06:03.513Z,12.29
2018-12-21T11:07:04.454Z,12.25
2018-12-21T11:08:03.689Z,12.25
2018-12-21T11:09:03.473Z,12.28
2018-12-21T11:10:03.511Z,12.29
2018-12-21T11:11:04.111Z,12.29
2018-12-21T11:12:04.296Z,12.28
2018-12-21T11:13:03.746Z,12.26
2018-12-21T11:14:03.666Z,12.36
2018-12-21T11:15:03.525Z,12.20
2018-12-21T11:16:04.280Z,12.17
2018-12-21T11:17:03.694Z,12.17
2018-12-21T11:18:03.600Z,12.14
2018-12-21T11:20:03.613Z,12.14
2018-12-21T11:21:03.635Z,12.12
2018-12-21T11:22:03.594Z,12.14
2018-12-21T11:23:03.570Z,12.17
2018-12-21T11:24:03.833Z,12.17
2018-12-21T11:25:03.603Z,12.17
2018-12-21T11:26:03.607Z,12.10
2018-12-21T11:27:03.605Z,12.18
2018-12-21T11:28:03.646Z,12.15
2018-12-21T11:29:03.645Z,12.15
2018-12-21T11:30:06.344Z,12.14
2018-12-21T11:31:03.623Z,12.28
2018-12-21T11:32:03.812Z,12.25
2018-12-21T11:33:03.700Z,12.29
2018-12-21T11:34:06.862Z,12.29
2018-12-21T11:35:04.512Z,12.36
2018-12-21T11:36:04.513Z,12.32
2018-12-21T11:37:04.844Z,12.28
2018-12-21T11:38:04.205Z,12.26
2018-12-21T11:39:07.890Z,12.33
2018-12-21T11:40:05.910Z,12.32
2018-12-21T11:41:04.307Z,12.33
2018-12-21T11:42:03.789Z,12.23
2018-12-21T11:43:04.321Z,12.14
2018-12-21T11:44:03.750Z,12.21
2018-12-21T11:45:03.734Z,12.14
2018-12-21T11:46:05.336Z,12.21
2018-12-21T11:47:05.895Z,12.21
2018-12-21T11:48:03.943Z,12.07
2018-12-21T11:49:03.767Z,12.07
2018-12-21T11:50:04.337Z,12.15
2018-12-21T11:51:05.337Z,12.17
2018-12-21T11:52:03.743Z,12.14
2018-12-21T11:53:05.231Z,12.11
2018-12-21T11:54:09.578Z,12.05
2018-12-21T11:55:03.881Z,12.17
2018-12-21T11:56:04.216Z,12.12
2018-12-21T11:57:04.008Z,12.15
2018-12-21T11:58:04.022Z,12.02
2018-12-21T11:59:03.849Z,12.11
2018-12-21T12:01:04.012Z,12.10
2018-12-21T12:02:03.810Z,12.10
2018-12-21T12:03:05.855Z,12.05
2018-12-21T12:04:05.345Z,11.96
2018-12-21T12:05:03.843Z,12.03
2018-12-21T12:06:04.145Z,12.05
2018-12-21T12:07:04.903Z,12.02
2018-12-21T12:08:04.860Z,11.97
2018-12-21T12:09:06.339Z,11.95
2018-12-21T12:10:04.003Z,11.93
2018-12-21T12:11:04.478Z,11.99
2018-12-21T12:12:04.557Z,12.05
2018-12-21T12:13:04.869Z,12.00
2018-12-21T12:14:03.935Z,11.93
2018-12-21T12:15:03.929Z,12.00
2018-12-21T12:16:03.914Z,11.99
2018-12-21T12:17:04.054Z,11.95
2018-12-21T12:18:03.952Z,11.91
2018-12-21T12:19:03.977Z,11.88
2018-12-21T12:20:03.932Z,11.99
2018-12-21T12:21:03.974Z,11.86
2018-12-21T12:22:03.921Z,11.99
2018-12-21T12:23:04.081Z,12.03
2018-12-21T12:24:03.949Z,12.05
2018-12-21T12:25:03.926Z,12.07
2018-12-21T12:26:03.973Z,12.03
2018-12-21T12:27:03.986Z,12.00
2018-12-21T12:28:04.024Z,12.15
2018-12-21T12:29:03.942Z,12.11
2018-12-21T12:30:03.965Z,12.07
2018-12-21T12:31:03.988Z,12.14
2018-12-21T12:32:04.007Z,12.12
2018-12-21T12:33:03.975Z,12.00
2018-12-21T12:34:04.021Z,12.03
2018-12-21T12:35:03.989Z,12.07
2018-12-21T12:36:04.047Z,12.14
2018-12-21T12:37:03.993Z,12.03
2018-12-21T12:38:04.023Z,12.00
2018-12-21T12:39:04.043Z,12.03
2018-12-21T12:40:04.014Z,12.00
2018-12-21T12:41:06.794Z,12.07
2018-12-21T12:42:04.052Z,12.08
2018-12-21T12:43:04.068Z,12.10
2018-12-21T12:44:04.142Z,12.08
2018-12-21T12:45:04.039Z,12.07
2018-12-21T12:46:04.057Z,12.03
2018-12-21T12:47:04.087Z,12.07
2018-12-21T12:48:04.105Z,12.07
2018-12-21T12:49:04.088Z,11.97
2018-12-21T12:50:04.113Z,11.95
2018-12-21T12:51:04.286Z,12.02
2018-12-21T12:52:04.106Z,11.96
2018-12-21T12:53:04.147Z,11.96
2018-12-21T12:54:04.117Z,11.99
2018-12-21T12:55:04.111Z,11.96
2018-12-21T12:56:05.293Z,11.97
2018-12-21T12:57:04.130Z,11.95
2018-12-21T12:58:04.135Z,11.97
2018-12-21T12:59:04.168Z,11.97
2018-12-21T13:00:04.175Z,11.78
2018-12-21T13:01:04.158Z,11.81
2018-12-21T13:02:04.159Z,11.83
2018-12-21T13:03:04.160Z,11.76
2018-12-21T13:04:04.177Z,11.78
2018-12-21T13:05:04.180Z,11.81
2018-12-21T13:06:04.212Z,11.83
2018-12-21T13:07:04.521Z,11.80
2018-12-21T13:08:04.871Z,11.76
2018-12-21T13:09:04.279Z,11.74
2018-12-21T13:10:04.215Z,11.76
2018-12-21T13:11:04.273Z,11.74
2018-12-21T13:12:04.254Z,11.74
2018-12-21T13:13:04.344Z,11.81
2018-12-21T13:14:04.228Z,11.76
2018-12-21T13:15:04.233Z,11.70
2018-12-21T13:16:04.389Z,11.63
2018-12-21T13:17:04.283Z,11.70
2018-12-21T13:18:04.258Z,11.65
2018-12-21T13:19:04.266Z,11.67
2018-12-21T13:20:04.289Z,11.63
2018-12-21T13:21:04.266Z,11.73
2018-12-21T13:22:04.491Z,11.71
2018-12-21T13:23:04.301Z,11.60
2018-12-21T13:24:04.306Z,11.59
2018-12-21T13:25:11.346Z,11.56
2018-12-21T13:26:04.334Z,11.56
2018-12-21T13:27:04.291Z,11.62
2018-12-21T13:28:04.360Z,11.62
2018-12-21T13:29:04.313Z,11.59
2018-12-21T13:30:04.434Z,11.59
2018-12-21T13:31:04.349Z,11.60
2018-12-21T13:32:04.347Z,11.59
2018-12-21T13:33:04.479Z,11.58
2018-12-21T13:34:04.357Z,11.49
2018-12-21T13:35:04.389Z,11.56
2018-12-21T13:36:04.377Z,11.53
2018-12-21T13:37:04.371Z,11.59
2018-12-21T13:38:04.448Z,11.59
2018-12-21T13:39:04.404Z,11.60
2018-12-21T13:40:04.370Z,11.58
2018-12-21T13:41:04.404Z,11.53
2018-12-21T13:42:04.569Z,11.51
2018-12-21T13:43:04.530Z,11.55
2018-12-21T13:44:04.649Z,11.51
2018-12-21T13:45:04.468Z,11.51
2018-12-21T13:46:04.411Z,11.55
2018-12-21T13:47:04.413Z,11.52
2018-12-21T13:48:04.535Z,11.51
2018-12-21T13:49:04.425Z,11.44
2018-12-21T13:50:04.463Z,11.43
2018-12-21T13:51:04.468Z,11.52
2018-12-21T13:52:04.453Z,11.35
2018-12-21T13:53:04.521Z,11.43
2018-12-21T13:54:04.478Z,11.43
2018-12-21T13:55:04.447Z,11.38
2018-12-21T13:56:04.470Z,11.34
2018-12-21T13:57:04.585Z,11.38
2018-12-21T13:58:06.440Z,11.38
2018-12-21T13:59:04.601Z,11.35
2018-12-21T14:00:04.538Z,11.33
2018-12-21T14:01:04.485Z,11.31
2018-12-21T14:02:04.495Z,11.33
2018-12-21T14:03:04.768Z,11.26
2018-12-21T14:04:04.521Z,11.27
2018-12-21T14:05:05.313Z,11.23
2018-12-21T14:06:04.515Z,11.25
2018-12-21T14:07:04.664Z,11.27
2018-12-21T14:08:04.659Z,11.13
2018-12-21T14:09:04.566Z,11.12
2018-12-21T14:10:04.607Z,11.16
2018-12-21T14:11:04.578Z,11.26
2018-12-21T14:12:04.589Z,11.20
2018-12-21T14:13:04.612Z,11.23
2018-12-21T14:14:04.595Z,11.26
2018-12-21T14:15:04.637Z,11.30
2018-12-21T14:16:04.714Z,11.27
2018-12-21T14:17:04.588Z,11.30
2018-12-21T14:18:05.000Z,11.27
2018-12-21T14:19:04.652Z,11.31
2018-12-21T14:20:05.358Z,11.31
2018-12-21T14:21:04.854Z,11.18
2018-12-21T14:22:04.668Z,11.12
2018-12-21T14:23:04.673Z,11.25
2018-12-21T14:24:04.701Z,11.27
2018-12-21T14:25:04.878Z,11.08
2018-12-21T14:26:04.780Z,11.13
2018-12-21T14:27:04.970Z,11.27
2018-12-21T14:28:04.638Z,11.20
2018-12-21T14:29:04.648Z,11.12
2018-12-21T14:30:04.652Z,11.25
2018-12-21T14:31:04.714Z,11.27
2018-12-21T14:32:04.687Z,11.20
2018-12-21T14:33:04.752Z,11.19
2018-12-21T14:34:04.701Z,11.31
2018-12-21T14:35:04.676Z,11.12
2018-12-21T14:36:05.363Z,11.13
2018-12-21T14:37:04.794Z,11.16
2018-12-21T14:38:04.720Z,11.15
2018-12-21T14:39:04.735Z,11.12
2018-12-21T14:40:04.745Z,11.16
2018-12-21T14:41:04.749Z,11.22
2018-12-21T14:42:04.745Z,11.31
2018-12-21T14:43:04.821Z,11.15
2018-12-21T14:44:04.747Z,11.26
2018-12-21T14:45:04.750Z,11.31
2018-12-21T14:46:04.792Z,11.25
2018-12-21T14:47:04.766Z,11.20
2018-12-21T14:48:04.775Z,11.23
2018-12-21T14:49:04.784Z,11.26
2018-12-21T14:50:04.837Z,11.26
2018-12-21T14:51:04.769Z,11.38
2018-12-21T14:52:04.795Z,11.33
2018-12-21T14:53:04.801Z,11.30
2018-12-21T14:54:04.810Z,11.30
2018-12-21T14:55:04.814Z,11.27
2018-12-21T14:56:04.812Z,11.25
2018-12-21T14:57:04.844Z,11.22
2018-12-21T14:58:04.856Z,11.26
2018-12-21T14:59:04.907Z,11.26
2018-12-21T15:00:04.833Z,11.26
2018-12-21T15:01:04.866Z,11.27
2018-12-21T15:02:05.649Z,11.23
2018-12-21T15:03:04.900Z,11.16
2018-12-21T15:04:04.918Z,11.22
2018-12-21T15:05:04.861Z,11.15
2018-12-21T15:06:04.900Z,11.13
2018-12-21T15:07:04.864Z,11.18
2018-12-21T15:08:04.888Z,11.15
2018-12-21T15:09:04.890Z,11.16
2018-12-21T15:10:05.075Z,11.15
2018-12-21T15:11:04.933Z,11.12
2018-12-21T15:12:04.972Z,11.19
2018-12-21T15:13:05.410Z,11.18
2018-12-21T15:14:04.949Z,11.20
2018-12-21T15:15:04.917Z,11.18
2018-12-21T15:16:04.951Z,11.18
2018-12-21T15:17:04.985Z,11.20
2018-12-21T15:18:04.940Z,11.19
2018-12-21T15:19:07.344Z,11.16
2018-12-21T15:20:07.754Z,11.18
2018-12-21T15:21:05.133Z,11.13
2018-12-21T15:22:05.076Z,11.16
2018-12-21T15:23:05.021Z,11.13
2018-12-21T15:24:05.196Z,11.22
2018-12-21T15:25:05.987Z,11.07
2018-12-21T15:26:06.875Z,11.22
2018-12-21T15:27:05.034Z,11.13
2018-12-21T15:28:04.980Z,11.16
2018-12-21T15:29:06.608Z,11.10
2018-12-21T15:30:05.024Z,11.13
2018-12-21T15:31:05.290Z,11.15
2018-12-21T15:32:05.016Z,11.04
2018-12-21T15:33:05.291Z,11.01
2018-12-21T15:34:05.190Z,11.08
2018-12-21T15:35:05.050Z,11.01
2018-12-21T15:36:05.144Z,10.97
2018-12-21T15:37:05.104Z,11.00
2018-12-21T15:38:05.143Z,11.01
2018-12-21T15:39:05.041Z,10.98
2018-12-21T15:40:05.188Z,11.01
2018-12-21T15:41:05.080Z,10.98
2018-12-21T15:42:05.062Z,11.05
2018-12-21T15:43:05.106Z,11.13
2018-12-21T15:44:06.633Z,11.12
2018-12-21T15:45:05.092Z,11.12
2018-12-21T15:46:05.155Z,11.18
2018-12-21T15:47:08.915Z,11.15
2018-12-21T15:48:05.103Z,11.22
2018-12-21T15:49:05.149Z,11.22
2018-12-21T15:50:05.157Z,11.23
2018-12-21T15:51:05.119Z,11.15
2018-12-21T15:52:05.111Z,11.22
2018-12-21T15:53:05.118Z,11.12
2018-12-21T15:54:05.124Z,11.26
2018-12-21T15:55:05.201Z,11.23
2018-12-21T15:56:05.159Z,11.26
2018-12-21T15:57:05.186Z,11.27
2018-12-21T15:58:05.329Z,11.25
2018-12-21T15:59:05.172Z,11.25
2018-12-21T16:00:05.947Z,11.26
2018-12-21T16:01:05.221Z,11.23
2018-12-21T16:02:05.262Z,11.30
2018-12-21T16:03:05.189Z,11.26
2018-12-21T16:04:05.494Z,11.27
2018-12-21T16:05:05.231Z,11.31
2018-12-21T16:06:05.222Z,11.27
2018-12-21T16:07:05.266Z,11.27
2018-12-21T16:08:05.259Z,11.27
2018-12-21T16:09:05.282Z,11.27
2018-12-21T16:10:05.260Z,11.27
2018-12-21T16:11:05.267Z,11.38
2018-12-21T16:12:05.244Z,11.33
2018-12-21T16:13:05.299Z,11.33